createdAt,value
2022-10-23T00:01:46.157Z,99130.31
2022-10-23T00:04:21.618Z,99133.00
2022-10-23T00:06:49.104Z,99132.37
2022-10-23T00:09:18.968Z,99136.12
2022-10-23T00:11:50.886Z,99135.31
2022-10-23T00:14:21.314Z,99130.13
2022-10-23T00:16:48.308Z,99126.59
2022-10-23T00:19:15.189Z,99118.72
2022-10-23T00:21:41.961Z,99113.53
2022-10-23T00:26:38.402Z,99109.16
2022-10-23T00:29:05.202Z,99102.34
2022-10-23T00:31:32.026Z,99112.34
2022-10-23T00:33:58.765Z,99105.28
2022-10-23T00:36:25.517Z,99113.84
2022-10-23T00:38:52.383Z,99113.03
2022-10-23T00:41:22.980Z,99121.97
2022-10-23T00:43:58.363Z,99122.19
2022-10-23T00:46:25.422Z,99119.47
2022-10-23T00:48:52.260Z,99116.00
2022-10-23T00:51:19.373Z,99119.53
2022-10-23T00:54:01.043Z,99125.81
2022-10-23T00:56:39.342Z,99121.41
2022-10-23T00:59:06.256Z,99117.28
2022-10-23T01:01:33.207Z,99117.28
2022-10-23T01:04:02.094Z,99112.94
2022-10-23T01:06:51.883Z,99116.09
2022-10-23T01:09:21.366Z,99120.69
2022-10-23T01:12:26.176Z,99111.97
2022-10-23T01:15:16.643Z,99110.53
2022-10-23T01:17:52.863Z,99105.34
2022-10-23T01:20:31.476Z,99119.09
2022-10-23T01:23:13.923Z,99114.97
2022-10-23T01:25:59.721Z,99113.94
2022-10-23T01:28:30.749Z,99115.81
2022-10-23T01:31:01.177Z,99117.31
2022-10-23T01:33:34.776Z,99118.34
2022-10-23T01:36:08.736Z,99113.78
2022-10-23T01:38:38.428Z,99114.19
2022-10-23T01:41:20.619Z,99106.53
2022-10-23T01:44:02.074Z,99112.19
2022-10-23T01:46:30.369Z,99111.56
2022-10-23T01:49:00.218Z,99116.97
2022-10-23T01:51:28.904Z,99117.44
2022-10-23T01:53:58.951Z,99119.53
2022-10-23T01:56:33.735Z,99123.50
2022-10-23T01:59:05.084Z,99122.91
2022-10-23T02:01:34.679Z,99118.75
2022-10-23T02:04:05.750Z,99121.69
2022-10-23T02:06:32.847Z,99123.75
2022-10-23T02:08:59.704Z,99121.28
2022-10-23T02:11:26.653Z,99127.72
2022-10-23T02:14:02.009Z,99129.84
2022-10-23T02:16:40.770Z,99129.00
2022-10-23T02:19:20.349Z,99135.91
2022-10-23T02:21:56.299Z,99122.63
2022-10-23T02:24:39.407Z,99122.84
2022-10-23T02:27:30.529Z,99118.25
2022-10-23T02:30:03.868Z,99115.56
2022-10-23T02:32:31.155Z,99118.25
2022-10-23T02:34:58.305Z,99129.53
2022-10-23T02:37:25.657Z,99127.88
2022-10-23T02:39:53.696Z,99129.75
2022-10-23T02:42:33.603Z,99122.09
2022-10-23T02:45:00.266Z,99125.63
2022-10-23T02:47:39.472Z,99129.59
2022-10-23T02:50:15.263Z,99129.59
2022-10-23T02:52:59.330Z,99129.00
2022-10-23T02:55:47.195Z,99132.28
2022-10-23T02:58:16.901Z,99128.12
2022-10-23T03:00:48.135Z,99125.88
2022-10-23T03:03:29.991Z,99131.28
2022-10-23T03:05:56.777Z,99126.31
2022-10-23T03:08:23.553Z,99119.88
2022-10-23T03:10:51.667Z,99120.09
2022-10-23T03:13:18.535Z,99116.56
2022-10-23T03:15:45.416Z,99119.53
2022-10-23T03:18:12.239Z,99122.03
2022-10-23T03:20:39.009Z,99125.16
2022-10-23T03:23:05.839Z,99126.38
2022-10-23T03:25:32.739Z,99123.06
2022-10-23T03:28:00.358Z,99123.91
2022-10-23T03:30:27.190Z,99121.41
2022-10-23T03:32:53.964Z,99127.28
2022-10-23T03:35:20.752Z,99125.00
2022-10-23T03:37:47.626Z,99124.59
2022-10-23T03:40:14.488Z,99122.72
2022-10-23T03:42:41.263Z,99128.78
2022-10-23T03:45:08.491Z,99113.84
2022-10-23T03:47:35.703Z,99124.87
2022-10-23T03:50:02.597Z,99121.56
2022-10-23T03:52:29.478Z,99123.87
2022-10-23T03:54:56.294Z,99119.75
2022-10-23T03:57:24.328Z,99119.75
2022-10-23T03:59:51.192Z,99119.16
2022-10-23T04:02:19.000Z,99127.69
2022-10-23T04:04:45.848Z,99128.69
2022-10-23T04:07:12.638Z,99127.25
2022-10-23T04:09:39.447Z,99130.19
2022-10-23T04:12:06.699Z,99127.09
2022-10-23T04:14:33.488Z,99121.31
2022-10-23T04:17:00.294Z,99122.56
2022-10-23T04:19:27.209Z,99119.66
2022-10-23T04:21:54.029Z,99111.78
2022-10-23T04:24:20.808Z,99114.47
2022-10-23T04:26:47.587Z,99110.13
2022-10-23T04:29:14.402Z,99107.03
2022-10-23T04:31:41.154Z,99116.19
2022-10-23T04:34:08.042Z,99113.25
2022-10-23T04:36:34.931Z,99119.50
2022-10-23T04:39:01.676Z,99124.28
2022-10-23T04:41:28.447Z,99120.16
2022-10-23T04:43:55.415Z,99116.63
2022-10-23T04:46:22.274Z,99110.59
2022-10-23T04:48:49.061Z,99110.59
2022-10-23T04:51:15.908Z,99105.62
2022-10-23T04:53:42.705Z,99109.37
2022-10-23T04:56:14.062Z,99104.19
2022-10-23T04:58:41.216Z,99102.31
2022-10-23T05:01:10.758Z,99105.22
2022-10-23T05:03:38.435Z,99098.41
2022-10-23T05:06:05.934Z,99106.94
2022-10-23T05:08:33.083Z,99100.09
2022-10-23T05:10:59.913Z,99102.19
2022-10-23T05:13:26.708Z,99098.88
2022-10-23T05:15:53.757Z,99103.44
2022-10-23T05:18:29.247Z,99092.44
2022-10-23T05:21:22.232Z,99100.34
2022-10-23T05:23:49.479Z,99095.16
2022-10-23T05:26:16.262Z,99091.41
2022-10-23T05:28:43.063Z,99094.75
2022-10-23T05:31:09.907Z,99094.75
2022-10-23T05:33:37.180Z,99096.63
2022-10-23T05:36:04.610Z,99095.19
2022-10-23T05:38:35.020Z,99090.00
2022-10-23T05:41:02.069Z,99089.19
2022-10-23T05:43:31.222Z,99091.28
2022-10-23T05:45:58.733Z,99088.34
2022-10-23T05:48:40.865Z,99089.19
2022-10-23T05:51:10.231Z,99083.19
2022-10-23T05:53:40.126Z,99097.28
2022-10-23T05:56:09.682Z,99098.53
2022-10-23T05:58:36.856Z,99106.63
2022-10-23T06:01:08.659Z,99103.13
2022-10-23T06:03:36.845Z,99098.16
2022-10-23T06:06:04.231Z,99103.31
2022-10-23T06:08:32.286Z,99108.72
2022-10-23T06:10:59.044Z,99104.97
2022-10-23T06:13:25.789Z,99105.81
2022-10-23T06:15:52.504Z,99111.19
2022-10-23T06:18:19.196Z,99117.44
2022-10-23T06:20:45.966Z,99116.81
2022-10-23T06:23:12.722Z,99121.78
2022-10-23T06:25:39.427Z,99125.31
2022-10-23T06:28:06.732Z,99124.25
2022-10-23T06:30:33.578Z,99131.31
2022-10-23T06:33:03.266Z,99133.78
2022-10-23T06:35:32.934Z,99138.16
2022-10-23T06:37:59.594Z,99146.63
2022-10-23T06:40:26.326Z,99146.84
2022-10-23T06:42:52.994Z,99151.81
2022-10-23T06:45:19.678Z,99151.59
2022-10-23T06:47:46.445Z,99148.72
2022-10-23T06:50:15.444Z,99145.56
2022-10-23T06:52:47.144Z,99132.69
2022-10-23T06:55:14.786Z,99138.47
2022-10-23T06:57:42.350Z,99138.06
2022-10-23T07:00:10.093Z,99139.72
2022-10-23T07:02:37.030Z,99134.69
2022-10-23T07:05:04.464Z,99131.78
2022-10-23T07:07:32.150Z,99129.47
2022-10-23T07:09:59.020Z,99133.63
2022-10-23T07:12:25.804Z,99133.19
2022-10-23T07:14:52.499Z,99134.63
2022-10-23T07:17:19.184Z,99132.53
2022-10-23T07:19:47.489Z,99137.28
2022-10-23T07:22:15.913Z,99139.34
2022-10-23T07:24:43.161Z,99135.97
2022-10-23T07:27:09.853Z,99140.75
2022-10-23T07:29:37.085Z,99132.00
2022-10-23T07:32:04.681Z,99133.19
2022-10-23T07:34:32.186Z,99129.00
2022-10-23T07:36:58.991Z,99133.53
2022-10-23T07:39:25.882Z,99142.88
2022-10-23T07:41:52.656Z,99148.44
2022-10-23T07:44:21.064Z,99156.69
2022-10-23T07:46:50.066Z,99158.75
2022-10-23T07:49:17.017Z,99159.94
2022-10-23T07:51:47.491Z,99160.16
2022-10-23T07:54:17.217Z,99158.44
2022-10-23T07:56:44.038Z,99148.59
2022-10-23T07:59:14.560Z,99146.87
2022-10-23T08:01:47.255Z,99144.97
2022-10-23T08:04:14.497Z,99145.97
2022-10-23T08:06:41.310Z,99146.13
2022-10-23T08:09:08.199Z,99147.09
2022-10-23T08:11:37.920Z,99144.34
2022-10-23T08:14:08.288Z,99139.91
2022-10-23T08:16:37.612Z,99147.94
2022-10-23T08:19:06.393Z,99138.94
2022-10-23T08:21:33.895Z,99140.75
2022-10-23T08:24:01.316Z,99133.63
2022-10-23T08:26:29.502Z,99137.88
2022-10-23T08:28:58.487Z,99138.84
2022-10-23T08:31:25.461Z,99140.44
2022-10-23T08:33:52.215Z,99136.34
2022-10-23T08:36:27.751Z,99137.72
2022-10-23T08:38:56.476Z,99137.75
2022-10-23T08:41:33.192Z,99127.41
2022-10-23T08:44:13.484Z,99122.50
2022-10-23T08:46:44.962Z,99122.53
2022-10-23T08:49:25.011Z,99121.41
2022-10-23T08:51:54.719Z,99123.53
2022-10-23T08:54:53.686Z,99124.47
2022-10-23T08:57:23.354Z,99124.34
2022-10-23T08:59:57.696Z,99125.91
2022-10-23T09:02:32.703Z,99120.16
2022-10-23T09:04:59.616Z,99114.59
2022-10-23T09:07:38.504Z,99112.72
2022-10-23T09:10:30.809Z,99108.28
2022-10-23T09:13:10.603Z,99110.06
2022-10-23T09:15:44.709Z,99108.50
2022-10-23T09:18:14.744Z,99111.91
2022-10-23T09:20:44.178Z,99107.69
2022-10-23T09:23:20.194Z,99104.03
2022-10-23T09:25:48.514Z,99103.66
2022-10-23T09:28:27.291Z,99109.78
2022-10-23T09:30:54.115Z,99102.59
2022-10-23T09:33:30.031Z,99101.03
2022-10-23T09:35:56.753Z,99098.78
2022-10-23T09:38:30.018Z,99098.19
2022-10-23T09:41:00.087Z,99099.19
2022-10-23T09:43:27.758Z,99089.62
2022-10-23T09:46:02.980Z,99092.28
2022-10-23T09:48:29.987Z,99091.63
2022-10-23T09:50:59.661Z,99082.28
2022-10-23T09:53:48.252Z,99074.47
2022-10-23T09:56:36.544Z,99082.12
2022-10-23T09:59:20.064Z,99085.25
2022-10-23T10:01:52.841Z,99086.75
2022-10-23T10:04:30.660Z,99085.28
2022-10-23T10:06:59.534Z,99088.09
2022-10-23T10:09:26.582Z,99088.22
2022-10-23T10:12:18.513Z,99083.94
2022-10-23T10:15:07.305Z,99091.34
2022-10-23T10:17:54.566Z,99093.87
2022-10-23T10:20:33.472Z,99092.25
2022-10-23T10:23:13.447Z,99084.66
2022-10-23T10:25:52.064Z,99074.09
2022-10-23T10:28:31.683Z,99071.94
2022-10-23T10:31:21.671Z,99074.78
2022-10-23T10:34:16.415Z,99075.91
2022-10-23T10:36:46.241Z,99074.91
2022-10-23T10:39:45.624Z,99065.75
2022-10-23T10:42:39.035Z,99058.50
2022-10-23T10:45:37.696Z,99063.44
2022-10-23T10:48:15.095Z,99051.56
2022-10-23T10:50:52.951Z,99050.53
2022-10-23T10:53:38.654Z,99038.06
2022-10-23T10:56:11.815Z,99038.16
2022-10-23T10:58:40.594Z,99029.47
2022-10-23T11:01:26.800Z,99028.97
2022-10-23T11:04:26.898Z,99017.31
2022-10-23T11:06:56.717Z,99016.81
2022-10-23T11:09:30.688Z,99015.78
2022-10-23T11:11:57.722Z,99009.03
2022-10-23T11:14:27.271Z,99008.00
2022-10-23T11:17:13.117Z,99013.50
2022-10-23T11:20:10.510Z,99005.13
2022-10-23T11:22:48.392Z,99003.03
2022-10-23T11:25:44.015Z,98997.69
2022-10-23T11:28:26.164Z,98989.63
2022-10-23T11:31:37.409Z,98986.16
2022-10-23T11:34:23.446Z,98989.16
2022-10-23T11:37:01.810Z,98992.75
2022-10-23T11:39:31.204Z,98991.19
2022-10-23T11:42:15.844Z,98979.78
2022-10-23T11:44:48.471Z,98970.00
2022-10-23T11:47:39.543Z,98971.91
2022-10-23T11:50:07.168Z,98961.31
2022-10-23T11:52:45.449Z,98956.13
2022-10-23T11:55:19.737Z,98946.59
2022-10-23T11:58:04.982Z,98949.37
2022-10-23T12:00:35.326Z,98943.97
2022-10-23T12:03:02.838Z,98945.62
2022-10-23T12:05:37.908Z,98943.97
2022-10-23T12:08:17.324Z,98938.28
2022-10-23T12:10:47.084Z,98925.47
2022-10-23T12:13:32.568Z,98926.59
2022-10-23T12:16:01.037Z,98925.78
2022-10-23T12:18:28.988Z,98915.12
2022-10-23T12:21:01.950Z,98919.78
2022-10-23T12:23:49.872Z,98917.31
2022-10-23T12:26:17.432Z,98920.31
2022-10-23T12:29:17.480Z,98920.84
2022-10-23T12:31:54.521Z,98912.16
2022-10-23T12:34:28.541Z,98905.88
2022-10-23T12:37:11.142Z,98904.03
2022-10-23T12:39:40.434Z,98908.41
2022-10-23T12:42:21.310Z,98901.34
2022-10-23T12:44:59.581Z,98899.72
2022-10-23T12:47:28.408Z,98902.47
2022-10-23T12:49:55.748Z,98898.97
2022-10-23T12:52:25.666Z,98897.59
2022-10-23T12:54:52.977Z,98888.87
2022-10-23T12:57:26.121Z,98883.69
2022-10-23T12:59:57.963Z,98878.50
2022-10-23T13:02:28.573Z,98881.53
2022-10-23T13:05:00.234Z,98884.06
2022-10-23T13:07:32.027Z,98895.81
2022-10-23T13:10:00.203Z,98894.44
2022-10-23T13:12:33.696Z,98892.00
2022-10-23T13:15:03.552Z,98889.81
2022-10-23T13:17:39.972Z,98888.47
2022-10-23T13:20:16.341Z,98885.47
2022-10-23T13:22:48.047Z,98880.28
2022-10-23T13:25:33.753Z,98869.91
2022-10-23T13:28:27.864Z,98876.75
2022-10-23T13:31:08.535Z,98868.00
2022-10-23T13:33:40.313Z,98864.16
2022-10-23T13:36:14.201Z,98858.44
2022-10-23T13:38:44.974Z,98833.56
2022-10-23T13:41:18.011Z,98832.47
2022-10-23T13:43:47.606Z,98834.66
2022-10-23T13:46:20.050Z,98836.06
2022-10-23T13:48:48.501Z,98844.81
2022-10-23T13:51:18.269Z,98850.53
2022-10-23T13:53:46.774Z,98854.34
2022-10-23T13:56:16.456Z,98844.50
2022-10-23T13:58:43.809Z,98841.50
2022-10-23T14:01:22.438Z,98831.66
2022-10-23T14:03:52.721Z,98837.16
2022-10-23T14:06:20.792Z,98837.13
2022-10-23T14:08:48.519Z,98854.91
2022-10-23T14:11:19.707Z,98844.78
2022-10-23T14:13:50.696Z,98847.78
2022-10-23T14:16:23.893Z,98848.59
2022-10-23T14:18:51.341Z,98835.75
2022-10-23T14:21:20.843Z,98831.09
2022-10-23T14:23:49.701Z,98841.22
2022-10-23T14:26:23.811Z,98836.03
2022-10-23T14:28:56.865Z,98834.37
2022-10-23T14:31:25.948Z,98830.03
2022-10-23T14:34:01.039Z,98831.38
2022-10-23T14:36:38.629Z,98830.56
2022-10-23T14:39:18.214Z,98835.22
2022-10-23T14:41:45.789Z,98833.59
2022-10-23T14:44:13.572Z,98830.03
2022-10-23T14:46:41.902Z,98827.56
2022-10-23T14:49:09.929Z,98824.84
2022-10-23T14:51:37.444Z,98823.75
2022-10-23T14:54:07.464Z,98817.19
2022-10-23T14:56:42.103Z,98814.44
2022-10-23T14:59:11.047Z,98814.16
2022-10-23T15:01:43.808Z,98817.19
2022-10-23T15:04:15.361Z,98828.94
2022-10-23T15:06:43.863Z,98817.72
2022-10-23T15:09:11.436Z,98819.63
2022-10-23T15:11:39.300Z,98815.00
2022-10-23T15:14:07.659Z,98813.06
2022-10-23T15:16:41.388Z,98806.78
2022-10-23T15:19:15.124Z,98801.31
2022-10-23T15:21:47.818Z,98795.03
2022-10-23T15:24:16.636Z,98803.25
2022-10-23T15:26:44.649Z,98796.13
2022-10-23T15:29:13.305Z,98796.13
2022-10-23T15:31:44.303Z,98811.72
2022-10-23T15:34:16.972Z,98813.91
2022-10-23T15:36:47.282Z,98807.09
2022-10-23T15:39:17.973Z,98814.47
2022-10-23T15:41:46.592Z,98804.59
2022-10-23T15:44:17.375Z,98813.88
2022-10-23T15:46:48.779Z,98807.31
2022-10-23T15:49:17.682Z,98805.97
2022-10-23T15:51:46.409Z,98805.97
2022-10-23T15:54:19.283Z,98807.31
2022-10-23T15:56:50.411Z,98813.06
2022-10-23T15:59:19.696Z,98817.19
2022-10-23T16:01:47.761Z,98819.37
2022-10-23T16:04:16.366Z,98818.00
2022-10-23T16:06:45.567Z,98811.19
2022-10-23T16:09:13.834Z,98815.56
2022-10-23T16:11:43.662Z,98816.09
2022-10-23T16:14:16.918Z,98796.97
2022-10-23T16:16:45.116Z,98803.78
2022-10-23T16:19:14.456Z,98822.38
2022-10-23T16:21:43.238Z,98821.28
2022-10-23T16:24:11.787Z,98823.75
2022-10-23T16:26:40.600Z,98817.75
2022-10-23T16:29:10.108Z,98812.81
2022-10-23T16:31:38.370Z,98817.19
2022-10-23T16:34:09.247Z,98814.16
2022-10-23T16:36:42.530Z,98812.78
2022-10-23T16:39:11.963Z,98817.72
2022-10-23T16:41:40.474Z,98821.81
2022-10-23T16:44:09.152Z,98806.78
2022-10-23T16:46:37.366Z,98818.25
2022-10-23T16:49:08.159Z,98813.63
2022-10-23T16:51:36.569Z,98804.59
2022-10-23T16:54:05.336Z,98819.34
2022-10-23T16:56:34.145Z,98815.53
2022-10-23T16:59:02.405Z,98815.78
2022-10-23T17:01:33.058Z,98817.72
2022-10-23T17:04:01.440Z,98814.91
2022-10-23T17:06:32.444Z,98821.72
2022-10-23T17:09:02.274Z,98818.72
2022-10-23T17:11:36.655Z,98814.38
2022-10-23T17:14:13.602Z,98807.25
2022-10-23T17:16:49.977Z,98816.81
2022-10-23T17:19:40.032Z,98817.09
2022-10-23T17:22:15.847Z,98821.19
2022-10-23T17:24:47.397Z,98820.63
2022-10-23T17:27:19.472Z,98828.78
2022-10-23T17:29:47.351Z,98830.13
2022-10-23T17:32:18.084Z,98827.94
2022-10-23T17:34:46.667Z,98825.47
2022-10-23T17:37:14.568Z,98817.03
2022-10-23T17:39:43.370Z,98821.94
2022-10-23T17:42:12.357Z,98823.03
2022-10-23T17:44:44.403Z,98832.56
2022-10-23T17:47:12.959Z,98826.00
2022-10-23T17:49:42.866Z,98822.47
2022-10-23T17:52:15.538Z,98818.38
2022-10-23T17:54:46.949Z,98817.00
2022-10-23T17:57:15.813Z,98811.81
2022-10-23T17:59:44.110Z,98820.22
2022-10-23T18:02:14.269Z,98814.78
2022-10-23T18:04:43.717Z,98806.03
2022-10-23T18:07:13.633Z,98805.78
2022-10-23T18:09:43.065Z,98804.66
2022-10-23T18:12:11.396Z,98796.22
2022-10-23T18:14:39.813Z,98789.94
2022-10-23T18:17:08.793Z,98799.47
2022-10-23T18:19:37.100Z,98797.28
2022-10-23T18:22:06.225Z,98797.28
2022-10-23T18:24:36.515Z,98792.66
2022-10-23T18:27:04.588Z,98794.56
2022-10-23T18:29:33.136Z,98786.91
2022-10-23T18:32:02.425Z,98791.81
2022-10-23T18:34:30.796Z,98788.25
2022-10-23T18:37:01.516Z,98795.09
2022-10-23T18:39:30.171Z,98790.72
2022-10-23T18:41:58.950Z,98790.44
2022-10-23T18:44:30.772Z,98785.81
2022-10-23T18:47:00.374Z,98781.44
2022-10-23T18:49:29.087Z,98770.53
2022-10-23T18:51:59.997Z,98764.75
2022-10-23T18:54:30.188Z,98764.75
2022-10-23T18:56:58.200Z,98765.84
2022-10-23T18:59:26.353Z,98764.75
2022-10-23T19:01:54.715Z,98758.50
2022-10-23T19:04:23.199Z,98768.59
2022-10-23T19:06:53.819Z,98761.50
2022-10-23T19:09:22.338Z,98767.75
2022-10-23T19:11:51.072Z,98772.41
2022-10-23T19:14:22.973Z,98768.03
2022-10-23T19:16:57.498Z,98760.13
2022-10-23T19:19:30.086Z,98766.94
2022-10-23T19:21:58.885Z,98766.37
2022-10-23T19:24:34.151Z,98769.38
2022-10-23T19:27:02.565Z,98765.81
2022-10-23T19:29:31.602Z,98768.81
2022-10-23T19:32:00.717Z,98770.16
2022-10-23T19:34:28.696Z,98769.31
2022-10-23T19:36:56.798Z,98769.31
2022-10-23T19:39:26.378Z,98772.00
2022-10-23T19:41:54.632Z,98775.00
2022-10-23T19:44:22.238Z,98770.91
2022-10-23T19:46:51.354Z,98768.72
2022-10-23T19:49:21.187Z,98766.00
2022-10-23T19:51:51.316Z,98771.41
2022-10-23T19:54:21.210Z,98774.66
2022-10-23T19:56:49.798Z,98768.09
2022-10-23T19:59:20.045Z,98762.34
2022-10-23T20:01:49.389Z,98753.84
2022-10-23T20:04:20.956Z,98749.47
2022-10-23T20:06:48.926Z,98757.09
2022-10-23T20:09:17.174Z,98760.34
2022-10-23T20:11:45.442Z,98765.50
2022-10-23T20:14:15.207Z,98764.69
2022-10-23T20:16:46.862Z,98755.69
2022-10-23T20:21:47.965Z,98762.50
2022-10-23T20:24:18.294Z,98764.91
2022-10-23T20:26:52.673Z,98761.88
2022-10-23T20:29:22.454Z,98765.41
2022-10-23T20:31:50.425Z,98755.03
2022-10-23T20:34:20.378Z,98759.37
2022-10-23T20:36:49.978Z,98750.91
2022-10-23T20:39:21.181Z,98756.09
2022-10-23T20:41:48.794Z,98763.97
2022-10-23T20:46:45.860Z,98749.19
2022-10-23T20:49:14.356Z,98748.66
2022-10-23T20:51:43.352Z,98756.50
2022-10-23T20:54:10.847Z,98757.34
2022-10-23T20:56:39.690Z,98759.50
2022-10-23T20:59:13.133Z,98752.94
2022-10-23T21:01:53.241Z,98746.38
2022-10-23T21:04:23.386Z,98739.03
2022-10-23T21:07:10.469Z,98740.38
2022-10-23T21:09:39.275Z,98746.91
2022-10-23T21:12:06.854Z,98748.47
2022-10-23T21:14:34.370Z,98738.94
2022-10-23T21:17:01.262Z,98749.53
2022-10-23T21:19:28.338Z,98736.19
2022-10-23T21:21:55.643Z,98734.81
2022-10-23T21:24:22.668Z,98742.97
2022-10-23T21:26:49.568Z,98751.66
2022-10-23T21:29:19.032Z,98757.09
2022-10-23T21:31:50.941Z,98755.16
2022-10-23T21:34:17.815Z,98758.13
2022-10-23T21:37:07.586Z,98760.84
2022-10-23T21:39:33.491Z,98751.87
2022-10-23T21:42:00.580Z,98750.44
2022-10-23T21:44:27.341Z,98758.37
2022-10-23T21:46:54.155Z,98746.91
2022-10-23T21:49:20.995Z,98758.06
2022-10-23T21:51:47.666Z,98751.22
2022-10-23T21:54:17.778Z,98758.84
2022-10-23T21:56:47.860Z,98765.34
2022-10-23T21:59:18.803Z,98764.28
2022-10-23T22:01:47.169Z,98752.56
2022-10-23T22:04:15.606Z,98749.84
2022-10-23T22:06:43.452Z,98751.44
2022-10-23T22:09:13.167Z,98746.81
2022-10-23T22:11:40.328Z,98741.38
2022-10-23T22:14:07.599Z,98729.69
2022-10-23T22:16:34.389Z,98738.63
2022-10-23T22:19:01.175Z,98752.78
2022-10-23T22:21:29.631Z,98763.41
2022-10-23T22:23:58.372Z,98767.72
2022-10-23T22:26:25.067Z,98748.12
2022-10-23T22:28:53.672Z,98745.66
2022-10-23T22:31:23.613Z,98742.03
2022-10-23T22:33:50.999Z,98738.25
2022-10-23T22:36:21.838Z,98739.31
2022-10-23T22:38:48.903Z,98738.50
2022-10-23T22:41:16.363Z,98744.75
2022-10-23T22:43:43.283Z,98752.38
2022-10-23T22:46:18.566Z,98755.09
2022-10-23T22:48:46.001Z,98732.75
2022-10-23T22:51:15.058Z,98736.56
2022-10-23T22:53:42.901Z,98722.97
2022-10-23T22:56:13.182Z,98719.94
2022-10-23T22:58:40.297Z,98719.13
2022-10-23T23:01:13.515Z,98728.34
2022-10-23T23:03:41.109Z,98718.81
2022-10-23T23:06:09.132Z,98726.72
2022-10-23T23:08:37.555Z,98717.44
2022-10-23T23:11:06.174Z,98733.50
2022-10-23T23:13:33.919Z,98729.94
2022-10-23T23:16:01.652Z,98739.19
2022-10-23T23:18:29.389Z,98742.97
2022-10-23T23:21:01.940Z,98734.78
2022-10-23T23:23:29.231Z,98733.38
2022-10-23T23:25:56.424Z,98731.47
2022-10-23T23:28:23.488Z,98715.16
2022-10-23T23:30:50.490Z,98710.22
2022-10-23T23:33:19.591Z,98709.62
2022-10-23T23:35:48.394Z,98707.75
2022-10-23T23:38:15.372Z,98710.47
2022-10-23T23:40:50.121Z,98698.75
2022-10-23T23:43:17.300Z,98701.75
2022-10-23T23:45:44.225Z,98708.50
2022-10-23T23:48:11.430Z,98700.34
2022-10-23T23:50:38.415Z,98704.47
2022-10-23T23:53:05.306Z,98698.72
2022-10-23T23:55:32.175Z,98694.66
2022-10-23T23:57:59.169Z,98704.16
